sensor_id;sensor_type;location;lat;lon;timestamp;temperature;humidity
46043;DHT22;32533;-33.854;18.542;2022-12-07T00:23:42;22.10;58.20
46043;DHT22;32533;-33.854;18.542;2022-12-07T00:26:12;22.20;58.90
46043;DHT22;32533;-33.854;18.542;2022-12-07T00:28:39;22.20;58.70
46043;DHT22;32533;-33.854;18.542;2022-12-07T00:31:09;22.20;58.50
46043;DHT22;32533;-33.854;18.542;2022-12-07T00:33:37;22.30;58.30
46043;DHT22;32533;-33.854;18.542;2022-12-07T00:36:07;22.30;57.90
46043;DHT22;32533;-33.854;18.542;2022-12-07T00:38:35;22.30;57.90
46043;DHT22;32533;-33.854;18.542;2022-12-07T00:41:24;22.30;57.80
46043;DHT22;32533;-33.854;18.542;2022-12-07T00:44:08;22.30;57.80
46043;DHT22;32533;-33.854;18.542;2022-12-07T00:46:35;22.30;57.70
46043;DHT22;32533;-33.854;18.542;2022-12-07T00:49:02;22.30;57.80
46043;DHT22;32533;-33.854;18.542;2022-12-07T00:51:28;22.30;57.70
46043;DHT22;32533;-33.854;18.542;2022-12-07T00:53:55;22.30;57.60
46043;DHT22;32533;-33.854;18.542;2022-12-07T00:56:26;22.30;57.60
46043;DHT22;32533;-33.854;18.542;2022-12-07T00:59:00;22.30;57.60
46043;DHT22;32533;-33.854;18.542;2022-12-07T01:01:29;22.30;57.60
46043;DHT22;32533;-33.854;18.542;2022-12-07T01:03:56;22.20;57.60
46043;DHT22;32533;-33.854;18.542;2022-12-07T01:06:24;22.20;57.70
46043;DHT22;32533;-33.854;18.542;2022-12-07T01:08:51;22.20;57.80
46043;DHT22;32533;-33.854;18.542;2022-12-07T01:11:20;22.20;57.80
46043;DHT22;32533;-33.854;18.542;2022-12-07T01:13:50;22.20;57.70
46043;DHT22;32533;-33.854;18.542;2022-12-07T01:16:17;22.20;57.70
46043;DHT22;32533;-33.854;18.542;2022-12-07T01:18:47;22.20;57.70
46043;DHT22;32533;-33.854;18.542;2022-12-07T01:21:19;22.20;57.70
46043;DHT22;32533;-33.854;18.542;2022-12-07T01:23:47;22.20;57.80
46043;DHT22;32533;-33.854;18.542;2022-12-07T01:26:17;22.10;58.20
46043;DHT22;32533;-33.854;18.542;2022-12-07T01:28:44;22.10;57.70
46043;DHT22;32533;-33.854;18.542;2022-12-07T01:31:14;22.10;57.70
46043;DHT22;32533;-33.854;18.542;2022-12-07T01:33:48;22.00;57.40
46043;DHT22;32533;-33.854;18.542;2022-12-07T01:36:33;22.10;57.30
46043;DHT22;32533;-33.854;18.542;2022-12-07T01:39:04;22.00;57.10
46043;DHT22;32533;-33.854;18.542;2022-12-07T01:41:34;22.00;56.90
46043;DHT22;32533;-33.854;18.542;2022-12-07T01:46:33;22.00;56.80
46043;DHT22;32533;-33.854;18.542;2022-12-07T01:49:00;21.90;56.90
46043;DHT22;32533;-33.854;18.542;2022-12-07T01:51:28;21.90;57.10
46043;DHT22;32533;-33.854;18.542;2022-12-07T01:53:55;21.90;57.30
46043;DHT22;32533;-33.854;18.542;2022-12-07T01:56:25;21.90;57.40
46043;DHT22;32533;-33.854;18.542;2022-12-07T01:58:54;21.90;57.50
46043;DHT22;32533;-33.854;18.542;2022-12-07T02:01:22;21.80;57.40
46043;DHT22;32533;-33.854;18.542;2022-12-07T02:03:49;21.80;57.30
46043;DHT22;32533;-33.854;18.542;2022-12-07T02:06:19;21.80;57.30
46043;DHT22;32533;-33.854;18.542;2022-12-07T02:08:47;21.80;57.40
46043;DHT22;32533;-33.854;18.542;2022-12-07T02:11:15;21.80;57.30
46043;DHT22;32533;-33.854;18.542;2022-12-07T02:13:43;21.80;57.30
46043;DHT22;32533;-33.854;18.542;2022-12-07T02:21:51;21.70;57.40
46043;DHT22;32533;-33.854;18.542;2022-12-07T02:30:15;21.70;57.50
46043;DHT22;32533;-33.854;18.542;2022-12-07T02:33:03;21.70;57.60
46043;DHT22;32533;-33.854;18.542;2022-12-07T02:35:35;21.70;57.60
46043;DHT22;32533;-33.854;18.542;2022-12-07T02:41:24;21.60;57.60
46043;DHT22;32533;-33.854;18.542;2022-12-07T02:43:35;21.60;57.80
46043;DHT22;32533;-33.854;18.542;2022-12-07T02:46:08;21.60;58.00
46043;DHT22;32533;-33.854;18.542;2022-12-07T02:48:37;21.50;58.00
46043;DHT22;32533;-33.854;18.542;2022-12-07T02:51:04;21.50;58.60
46043;DHT22;32533;-33.854;18.542;2022-12-07T02:53:42;21.50;57.90
46043;DHT22;32533;-33.854;18.542;2022-12-07T02:59:11;21.50;57.70
46043;DHT22;32533;-33.854;18.542;2022-12-07T03:10:16;21.40;57.40
46043;DHT22;32533;-33.854;18.542;2022-12-07T03:13:03;21.40;57.40
46043;DHT22;32533;-33.854;18.542;2022-12-07T03:15:51;21.30;57.30
46043;DHT22;32533;-33.854;18.542;2022-12-07T03:18:23;21.30;57.20
46043;DHT22;32533;-33.854;18.542;2022-12-07T03:20:53;21.40;57.10
46043;DHT22;32533;-33.854;18.542;2022-12-07T03:23:23;21.30;56.90
46043;DHT22;32533;-33.854;18.542;2022-12-07T03:25:55;21.30;57.50
46043;DHT22;32533;-33.854;18.542;2022-12-07T03:28:26;21.30;56.80
46043;DHT22;32533;-33.854;18.542;2022-12-07T03:31:00;21.20;56.70
46043;DHT22;32533;-33.854;18.542;2022-12-07T03:34:28;21.20;56.80
46043;DHT22;32533;-33.854;18.542;2022-12-07T03:36:52;21.20;56.80
46043;DHT22;32533;-33.854;18.542;2022-12-07T03:42:04;21.10;57.00
46043;DHT22;32533;-33.854;18.542;2022-12-07T03:44:33;21.10;57.00
46043;DHT22;32533;-33.854;18.542;2022-12-07T03:47:08;21.10;57.10
46043;DHT22;32533;-33.854;18.542;2022-12-07T03:49:50;21.10;57.20
46043;DHT22;32533;-33.854;18.542;2022-12-07T03:52:40;21.10;57.30
46043;DHT22;32533;-33.854;18.542;2022-12-07T03:55:20;21.10;57.40
46043;DHT22;32533;-33.854;18.542;2022-12-07T03:57:52;21.10;57.50
46043;DHT22;32533;-33.854;18.542;2022-12-07T04:00:20;21.00;57.70
46043;DHT22;32533;-33.854;18.542;2022-12-07T04:02:47;21.10;58.20
46043;DHT22;32533;-33.854;18.542;2022-12-07T04:05:14;21.00;58.00
46043;DHT22;32533;-33.854;18.542;2022-12-07T04:07:41;21.00;58.00
46043;DHT22;32533;-33.854;18.542;2022-12-07T04:10:08;21.00;58.50
46043;DHT22;32533;-33.854;18.542;2022-12-07T04:12:34;20.90;59.60
46043;DHT22;32533;-33.854;18.542;2022-12-07T04:15:01;20.80;60.30
46043;DHT22;32533;-33.854;18.542;2022-12-07T04:17:27;20.80;60.60
46043;DHT22;32533;-33.854;18.542;2022-12-07T04:19:54;20.80;61.30
46043;DHT22;32533;-33.854;18.542;2022-12-07T04:22:20;20.80;61.50
46043;DHT22;32533;-33.854;18.542;2022-12-07T04:24:47;20.90;61.40
46043;DHT22;32533;-33.854;18.542;2022-12-07T04:27:13;20.90;61.10
46043;DHT22;32533;-33.854;18.542;2022-12-07T04:29:40;20.90;60.80
46043;DHT22;32533;-33.854;18.542;2022-12-07T04:32:06;20.90;60.60
46043;DHT22;32533;-33.854;18.542;2022-12-07T04:34:33;20.90;60.80
46043;DHT22;32533;-33.854;18.542;2022-12-07T04:36:59;21.00;61.00
46043;DHT22;32533;-33.854;18.542;2022-12-07T04:39:31;21.00;61.20
46043;DHT22;32533;-33.854;18.542;2022-12-07T04:41:59;21.00;61.10
46043;DHT22;32533;-33.854;18.542;2022-12-07T04:44:27;21.00;60.90
46043;DHT22;32533;-33.854;18.542;2022-12-07T04:47:13;21.00;60.90
46043;DHT22;32533;-33.854;18.542;2022-12-07T04:50:08;21.00;60.90
46043;DHT22;32533;-33.854;18.542;2022-12-07T04:52:56;21.00;60.90
46043;DHT22;32533;-33.854;18.542;2022-12-07T04:55:22;21.00;60.80
46043;DHT22;32533;-33.854;18.542;2022-12-07T04:57:52;21.00;61.70
46043;DHT22;32533;-33.854;18.542;2022-12-07T05:00:21;21.10;61.80
46043;DHT22;32533;-33.854;18.542;2022-12-07T05:02:47;21.00;62.30
46043;DHT22;32533;-33.854;18.542;2022-12-07T05:05:14;21.10;62.40
46043;DHT22;32533;-33.854;18.542;2022-12-07T05:08:00;21.10;62.40
46043;DHT22;32533;-33.854;18.542;2022-12-07T05:10:58;21.10;62.20
46043;DHT22;32533;-33.854;18.542;2022-12-07T05:13:26;21.10;62.00
46043;DHT22;32533;-33.854;18.542;2022-12-07T05:15:53;21.10;61.90
46043;DHT22;32533;-33.854;18.542;2022-12-07T05:18:32;21.10;61.70
46043;DHT22;32533;-33.854;18.542;2022-12-07T05:20:59;21.20;61.60
46043;DHT22;32533;-33.854;18.542;2022-12-07T05:23:27;21.20;61.60
46043;DHT22;32533;-33.854;18.542;2022-12-07T05:25:56;21.20;61.80
46043;DHT22;32533;-33.854;18.542;2022-12-07T05:28:24;21.20;62.00
46043;DHT22;32533;-33.854;18.542;2022-12-07T05:30:51;21.20;62.20
46043;DHT22;32533;-33.854;18.542;2022-12-07T05:33:17;21.30;62.50
46043;DHT22;32533;-33.854;18.542;2022-12-07T05:35:44;21.30;62.60
46043;DHT22;32533;-33.854;18.542;2022-12-07T05:38:10;21.30;62.50
46043;DHT22;32533;-33.854;18.542;2022-12-07T05:40:37;21.40;62.50
46043;DHT22;32533;-33.854;18.542;2022-12-07T05:43:03;21.40;62.70
46043;DHT22;32533;-33.854;18.542;2022-12-07T05:45:30;21.40;62.70
46043;DHT22;32533;-33.854;18.542;2022-12-07T05:47:56;21.50;62.80
46043;DHT22;32533;-33.854;18.542;2022-12-07T05:50:23;21.50;62.80
46043;DHT22;32533;-33.854;18.542;2022-12-07T05:52:49;21.60;62.90
46043;DHT22;32533;-33.854;18.542;2022-12-07T05:55:16;21.60;62.70
46043;DHT22;32533;-33.854;18.542;2022-12-07T05:57:42;21.60;62.70
46043;DHT22;32533;-33.854;18.542;2022-12-07T06:00:29;21.70;62.60
46043;DHT22;32533;-33.854;18.542;2022-12-07T10:18:32;25.50;55.40
46043;DHT22;32533;-33.854;18.542;2022-12-07T10:21:16;25.50;55.40
46043;DHT22;32533;-33.854;18.542;2022-12-07T10:24:02;25.50;55.30
46043;DHT22;32533;-33.854;18.542;2022-12-07T10:26:36;25.60;55.00
46043;DHT22;32533;-33.854;18.542;2022-12-07T10:29:14;25.60;54.90
46043;DHT22;32533;-33.854;18.542;2022-12-07T10:31:43;25.60;54.60
46043;DHT22;32533;-33.854;18.542;2022-12-07T10:34:34;25.70;54.10
46043;DHT22;32533;-33.854;18.542;2022-12-07T10:37:18;25.70;54.00
46043;DHT22;32533;-33.854;18.542;2022-12-07T10:39:53;25.70;54.20
46043;DHT22;32533;-33.854;18.542;2022-12-07T10:45:07;25.80;53.50
46043;DHT22;32533;-33.854;18.542;2022-12-07T10:50:41;25.80;53.10
46043;DHT22;32533;-33.854;18.542;2022-12-07T11:01:23;25.90;52.20
46043;DHT22;32533;-33.854;18.542;2022-12-07T11:03:53;26.00;52.20
46043;DHT22;32533;-33.854;18.542;2022-12-07T11:07:23;26.00;51.80
46043;DHT22;32533;-33.854;18.542;2022-12-07T11:12:09;26.10;51.90
46043;DHT22;32533;-33.854;18.542;2022-12-07T11:15:00;26.10;51.70
46043;DHT22;32533;-33.854;18.542;2022-12-07T11:17:46;26.10;51.40
46043;DHT22;32533;-33.854;18.542;2022-12-07T11:20:29;26.20;51.80
46043;DHT22;32533;-33.854;18.542;2022-12-07T11:37:59;26.30;51.60
46043;DHT22;32533;-33.854;18.542;2022-12-07T11:40:50;26.50;51.50
46043;DHT22;32533;-33.854;18.542;2022-12-07T11:43:31;26.50;51.50
46043;DHT22;32533;-33.854;18.542;2022-12-07T11:46:00;26.50;51.40
46043;DHT22;32533;-33.854;18.542;2022-12-07T11:48:40;26.60;51.50
46043;DHT22;32533;-33.854;18.542;2022-12-07T11:51:10;26.60;51.50
46043;DHT22;32533;-33.854;18.542;2022-12-07T11:53:39;26.70;51.40
46043;DHT22;32533;-33.854;18.542;2022-12-07T11:56:19;26.70;51.10
46043;DHT22;32533;-33.854;18.542;2022-12-07T12:06:43;26.80;52.00
46043;DHT22;32533;-33.854;18.542;2022-12-07T12:09:39;26.80;51.90
46043;DHT22;32533;-33.854;18.542;2022-12-07T12:15:18;26.80;52.00
46043;DHT22;32533;-33.854;18.542;2022-12-07T12:21:10;26.90;53.30
46043;DHT22;32533;-33.854;18.542;2022-12-07T12:23:48;26.80;54.10
46043;DHT22;32533;-33.854;18.542;2022-12-07T12:26:25;26.80;54.20
46043;DHT22;32533;-33.854;18.542;2022-12-07T12:28:56;26.80;54.10
46043;DHT22;32533;-33.854;18.542;2022-12-07T12:33:55;26.80;54.60
46043;DHT22;32533;-33.854;18.542;2022-12-07T12:46:54;27.00;54.20
46043;DHT22;32533;-33.854;18.542;2022-12-07T12:55:12;26.90;53.60
46043;DHT22;32533;-33.854;18.542;2022-12-07T12:57:39;26.90;53.80
46043;DHT22;32533;-33.854;18.542;2022-12-07T13:00:22;26.90;54.00
46043;DHT22;32533;-33.854;18.542;2022-12-07T13:02:50;26.90;54.00
46043;DHT22;32533;-33.854;18.542;2022-12-07T13:05:23;26.90;53.90
46043;DHT22;32533;-33.854;18.542;2022-12-07T13:07:51;26.90;53.90
46043;DHT22;32533;-33.854;18.542;2022-12-07T13:15:49;26.90;53.50
46043;DHT22;32533;-33.854;18.542;2022-12-07T13:18:34;26.90;53.40
46043;DHT22;32533;-33.854;18.542;2022-12-07T13:29:19;26.80;53.70
46043;DHT22;32533;-33.854;18.542;2022-12-07T13:31:55;26.80;54.30
46043;DHT22;32533;-33.854;18.542;2022-12-07T13:34:30;26.80;54.90
46043;DHT22;32533;-33.854;18.542;2022-12-07T13:36:57;26.80;55.60
46043;DHT22;32533;-33.854;18.542;2022-12-07T13:39:26;26.80;56.00
46043;DHT22;32533;-33.854;18.542;2022-12-07T13:41:55;26.80;56.20
46043;DHT22;32533;-33.854;18.542;2022-12-07T13:44:24;26.90;56.40
46043;DHT22;32533;-33.854;18.542;2022-12-07T13:47:48;26.90;56.00
46043;DHT22;32533;-33.854;18.542;2022-12-07T13:49:55;26.90;55.60
46043;DHT22;32533;-33.854;18.542;2022-12-07T13:52:27;26.90;55.80
46043;DHT22;32533;-33.854;18.542;2022-12-07T13:54:59;26.90;55.90
46043;DHT22;32533;-33.854;18.542;2022-12-07T13:57:28;26.80;55.70
46043;DHT22;32533;-33.854;18.542;2022-12-07T13:59:57;26.90;55.60
46043;DHT22;32533;-33.854;18.542;2022-12-07T16:14:25;26.00;58.40
46043;DHT22;32533;-33.854;18.542;2022-12-07T16:16:52;26.10;58.60
46043;DHT22;32533;-33.854;18.542;2022-12-07T16:19:19;26.10;58.30
46043;DHT22;32533;-33.854;18.542;2022-12-07T16:21:45;26.30;58.10
46043;DHT22;32533;-33.854;18.542;2022-12-07T16:24:12;26.30;57.80
46043;DHT22;32533;-33.854;18.542;2022-12-07T16:26:41;26.30;57.60
46043;DHT22;32533;-33.854;18.542;2022-12-07T16:29:11;26.40;57.40
46043;DHT22;32533;-33.854;18.542;2022-12-07T16:31:38;26.40;57.30
46043;DHT22;32533;-33.854;18.542;2022-12-07T16:34:05;26.40;57.10
46043;DHT22;32533;-33.854;18.542;2022-12-07T16:36:32;26.40;57.00
46043;DHT22;32533;-33.854;18.542;2022-12-07T16:38:59;26.40;57.00
46043;DHT22;32533;-33.854;18.542;2022-12-07T16:41:26;26.40;57.00
46043;DHT22;32533;-33.854;18.542;2022-12-07T16:43:53;26.40;56.90
46043;DHT22;32533;-33.854;18.542;2022-12-07T16:46:20;26.50;56.90
46043;DHT22;32533;-33.854;18.542;2022-12-07T16:48:49;26.50;56.70
46043;DHT22;32533;-33.854;18.542;2022-12-07T16:51:15;26.50;56.50
46043;DHT22;32533;-33.854;18.542;2022-12-07T16:53:42;26.50;55.80
46043;DHT22;32533;-33.854;18.542;2022-12-07T16:56:13;26.50;55.40
46043;DHT22;32533;-33.854;18.542;2022-12-07T16:58:41;26.50;55.00
46043;DHT22;32533;-33.854;18.542;2022-12-07T17:01:18;26.50;54.80
46043;DHT22;32533;-33.854;18.542;2022-12-07T17:03:46;26.50;54.50
46043;DHT22;32533;-33.854;18.542;2022-12-07T17:06:24;26.50;54.30
46043;DHT22;32533;-33.854;18.542;2022-12-07T17:08:51;26.50;54.20
46043;DHT22;32533;-33.854;18.542;2022-12-07T17:11:23;26.50;54.00
46043;DHT22;32533;-33.854;18.542;2022-12-07T17:13:50;26.50;54.00
46043;DHT22;32533;-33.854;18.542;2022-12-07T17:16:36;26.40;53.60
46043;DHT22;32533;-33.854;18.542;2022-12-07T17:19:11;26.40;53.60
46043;DHT22;32533;-33.854;18.542;2022-12-07T17:21:38;26.40;53.60
46043;DHT22;32533;-33.854;18.542;2022-12-07T17:24:07;26.40;53.50
46043;DHT22;32533;-33.854;18.542;2022-12-07T17:26:34;26.30;53.30
46043;DHT22;32533;-33.854;18.542;2022-12-07T17:29:02;26.30;53.40
46043;DHT22;32533;-33.854;18.542;2022-12-07T17:31:34;26.30;53.40
46043;DHT22;32533;-33.854;18.542;2022-12-07T17:34:03;26.20;53.60
46043;DHT22;32533;-33.854;18.542;2022-12-07T17:36:47;26.20;53.80
46043;DHT22;32533;-33.854;18.542;2022-12-07T17:39:16;26.20;53.80
46043;DHT22;32533;-33.854;18.542;2022-12-07T17:41:44;26.10;53.80
46043;DHT22;32533;-33.854;18.542;2022-12-07T17:44:32;26.10;53.80
46043;DHT22;32533;-33.854;18.542;2022-12-07T17:46:59;26.10;53.80
46043;DHT22;32533;-33.854;18.542;2022-12-07T17:49:27;26.10;53.90
46043;DHT22;32533;-33.854;18.542;2022-12-07T17:51:54;26.00;54.30
46043;DHT22;32533;-33.854;18.542;2022-12-07T17:54:39;26.00;54.60
46043;DHT22;32533;-33.854;18.542;2022-12-07T17:57:05;26.00;54.70
46043;DHT22;32533;-33.854;18.542;2022-12-07T17:59:32;26.00;54.90
46043;DHT22;32533;-33.854;18.542;2022-12-07T18:01:58;25.90;55.00
46043;DHT22;32533;-33.854;18.542;2022-12-07T18:04:25;25.90;55.30
46043;DHT22;32533;-33.854;18.542;2022-12-07T18:06:52;25.90;55.50
46043;DHT22;32533;-33.854;18.542;2022-12-07T18:09:19;25.90;55.80
46043;DHT22;32533;-33.854;18.542;2022-12-07T18:11:47;25.80;55.90
46043;DHT22;32533;-33.854;18.542;2022-12-07T18:14:13;25.80;56.00
46043;DHT22;32533;-33.854;18.542;2022-12-07T18:16:41;25.80;56.10
46043;DHT22;32533;-33.854;18.542;2022-12-07T18:19:08;25.70;56.30
46043;DHT22;32533;-33.854;18.542;2022-12-07T18:21:35;25.70;56.80
46043;DHT22;32533;-33.854;18.542;2022-12-07T18:24:03;25.70;57.00
46043;DHT22;32533;-33.854;18.542;2022-12-07T18:26:32;25.70;56.80
46043;DHT22;32533;-33.854;18.542;2022-12-07T18:29:01;25.70;56.80
46043;DHT22;32533;-33.854;18.542;2022-12-07T18:31:28;25.70;57.00
46043;DHT22;32533;-33.854;18.542;2022-12-07T18:33:55;25.70;57.00
46043;DHT22;32533;-33.854;18.542;2022-12-07T18:36:25;25.60;57.00
46043;DHT22;32533;-33.854;18.542;2022-12-07T18:38:51;25.60;57.30
46043;DHT22;32533;-33.854;18.542;2022-12-07T18:41:18;25.60;57.40
46043;DHT22;32533;-33.854;18.542;2022-12-07T18:43:45;25.50;57.50
46043;DHT22;32533;-33.854;18.542;2022-12-07T18:46:14;25.50;57.70
46043;DHT22;32533;-33.854;18.542;2022-12-07T18:48:41;25.50;57.80
46043;DHT22;32533;-33.854;18.542;2022-12-07T18:51:10;25.50;57.90
46043;DHT22;32533;-33.854;18.542;2022-12-07T18:53:37;25.40;57.70
46043;DHT22;32533;-33.854;18.542;2022-12-07T18:58:39;25.40;57.70
46043;DHT22;32533;-33.854;18.542;2022-12-07T19:01:24;25.40;57.80
46043;DHT22;32533;-33.854;18.542;2022-12-07T19:03:50;25.30;57.80
46043;DHT22;32533;-33.854;18.542;2022-12-07T19:06:35;25.30;58.10
46043;DHT22;32533;-33.854;18.542;2022-12-07T19:09:03;25.30;58.30
46043;DHT22;32533;-33.854;18.542;2022-12-07T19:11:31;25.30;58.70
46043;DHT22;32533;-33.854;18.542;2022-12-07T19:14:27;25.30;59.10
46043;DHT22;32533;-33.854;18.542;2022-12-07T19:16:56;25.30;59.50
46043;DHT22;32533;-33.854;18.542;2022-12-07T19:19:32;25.20;59.80
46043;DHT22;32533;-33.854;18.542;2022-12-07T19:21:59;25.20;60.00
46043;DHT22;32533;-33.854;18.542;2022-12-07T19:24:27;25.20;60.20
46043;DHT22;32533;-33.854;18.542;2022-12-07T19:26:53;25.20;60.20
46043;DHT22;32533;-33.854;18.542;2022-12-07T19:29:20;25.20;60.30
46043;DHT22;32533;-33.854;18.542;2022-12-07T19:31:47;25.20;60.40
46043;DHT22;32533;-33.854;18.542;2022-12-07T19:34:15;25.20;60.70
46043;DHT22;32533;-33.854;18.542;2022-12-07T19:36:42;25.20;60.90
46043;DHT22;32533;-33.854;18.542;2022-12-07T19:39:09;25.10;61.10
46043;DHT22;32533;-33.854;18.542;2022-12-07T19:41:35;25.10;61.20
46043;DHT22;32533;-33.854;18.542;2022-12-07T19:44:18;25.10;61.50
46043;DHT22;32533;-33.854;18.542;2022-12-07T19:46:46;25.10;61.80
46043;DHT22;32533;-33.854;18.542;2022-12-07T19:49:15;25.10;61.80
46043;DHT22;32533;-33.854;18.542;2022-12-07T19:51:47;25.00;61.90
46043;DHT22;32533;-33.854;18.542;2022-12-07T19:54:16;25.00;62.40
46043;DHT22;32533;-33.854;18.542;2022-12-07T19:56:43;25.00;62.80
46043;DHT22;32533;-33.854;18.542;2022-12-07T19:59:11;25.00;63.10
46043;DHT22;32533;-33.854;18.542;2022-12-07T20:01:38;25.00;63.70
46043;DHT22;32533;-33.854;18.542;2022-12-07T20:04:16;25.00;63.80
46043;DHT22;32533;-33.854;18.542;2022-12-07T20:06:45;24.90;64.10
46043;DHT22;32533;-33.854;18.542;2022-12-07T20:09:12;24.90;64.00
46043;DHT22;32533;-33.854;18.542;2022-12-07T20:11:39;24.90;64.20
46043;DHT22;32533;-33.854;18.542;2022-12-07T20:14:44;24.90;64.50
46043;DHT22;32533;-33.854;18.542;2022-12-07T20:17:11;24.90;65.00
46043;DHT22;32533;-33.854;18.542;2022-12-07T20:19:38;24.90;64.70
46043;DHT22;32533;-33.854;18.542;2022-12-07T20:22:05;24.90;64.90
46043;DHT22;32533;-33.854;18.542;2022-12-07T20:24:32;24.90;64.90
46043;DHT22;32533;-33.854;18.542;2022-12-07T20:27:00;24.90;65.50
46043;DHT22;32533;-33.854;18.542;2022-12-07T20:29:27;24.90;65.60
46043;DHT22;32533;-33.854;18.542;2022-12-07T20:31:56;24.80;65.30
46043;DHT22;32533;-33.854;18.542;2022-12-07T20:34:23;24.90;65.50
46043;DHT22;32533;-33.854;18.542;2022-12-07T20:36:52;24.80;65.30
46043;DHT22;32533;-33.854;18.542;2022-12-07T20:39:19;24.80;65.80
46043;DHT22;32533;-33.854;18.542;2022-12-07T20:41:45;24.80;65.70
46043;DHT22;32533;-33.854;18.542;2022-12-07T20:44:30;24.80;65.90
46043;DHT22;32533;-33.854;18.542;2022-12-07T20:46:57;24.80;66.00
46043;DHT22;32533;-33.854;18.542;2022-12-07T20:49:23;24.80;65.90
46043;DHT22;32533;-33.854;18.542;2022-12-07T20:51:50;24.70;66.00
46043;DHT22;32533;-33.854;18.542;2022-12-07T20:54:16;24.70;66.50
46043;DHT22;32533;-33.854;18.542;2022-12-07T20:56:43;24.70;66.80
46043;DHT22;32533;-33.854;18.542;2022-12-07T20:59:13;24.70;67.20
46043;DHT22;32533;-33.854;18.542;2022-12-07T21:01:40;24.70;66.50
46043;DHT22;32533;-33.854;18.542;2022-12-07T21:04:06;24.70;66.40
46043;DHT22;32533;-33.854;18.542;2022-12-07T21:06:33;24.60;66.20
46043;DHT22;32533;-33.854;18.542;2022-12-07T21:09:00;24.70;66.20
46043;DHT22;32533;-33.854;18.542;2022-12-07T21:11:28;24.60;66.20
46043;DHT22;32533;-33.854;18.542;2022-12-07T21:13:55;24.60;66.20
46043;DHT22;32533;-33.854;18.542;2022-12-07T21:16:27;24.60;66.40
46043;DHT22;32533;-33.854;18.542;2022-12-07T21:18:55;24.60;66.50
46043;DHT22;32533;-33.854;18.542;2022-12-07T21:21:23;24.60;66.60
46043;DHT22;32533;-33.854;18.542;2022-12-07T21:23:51;24.60;66.60
46043;DHT22;32533;-33.854;18.542;2022-12-07T21:26:21;24.50;66.60
46043;DHT22;32533;-33.854;18.542;2022-12-07T21:28:48;24.50;66.60
46043;DHT22;32533;-33.854;18.542;2022-12-07T21:31:15;24.50;66.60
46043;DHT22;32533;-33.854;18.542;2022-12-07T21:33:43;24.50;66.70
46043;DHT22;32533;-33.854;18.542;2022-12-07T21:36:12;24.40;66.70
46043;DHT22;32533;-33.854;18.542;2022-12-07T21:38:39;24.40;66.80
46043;DHT22;32533;-33.854;18.542;2022-12-07T21:41:13;24.40;66.80
46043;DHT22;32533;-33.854;18.542;2022-12-07T21:43:40;24.40;66.70
46043;DHT22;32533;-33.854;18.542;2022-12-07T21:46:07;24.40;66.80
46043;DHT22;32533;-33.854;18.542;2022-12-07T21:48:34;24.40;67.00
46043;DHT22;32533;-33.854;18.542;2022-12-07T21:51:11;24.40;67.10
46043;DHT22;32533;-33.854;18.542;2022-12-07T21:53:40;24.40;67.10
46043;DHT22;32533;-33.854;18.542;2022-12-07T21:56:34;24.40;67.20
46043;DHT22;32533;-33.854;18.542;2022-12-07T21:59:11;24.40;67.30
46043;DHT22;32533;-33.854;18.542;2022-12-07T22:01:39;24.30;67.40
46043;DHT22;32533;-33.854;18.542;2022-12-07T22:04:07;24.30;67.50
